QTR8A OTHH-YSSY
Flight info
| Callsign | QTR8A |
|---|---|
| Flight time | N/A |
| Altitude | 41000 |
| Route | BUNDU B415 SIXIV N318 TOLDA P570 KITAL L894 BIBGO DCT SABEK DCT 10S083E 14S086E 19S090E 24S095E 25S096E 2800S10030E 30S104E 32S109E 34S115E DCT NIPON DCT VIMUS DCT COBEL DCT LESON DCT TUTNO Y135 TEDUS J15 AD H247 CULIN Y59 RIVET |
| Aircraft | A388/J-SADE2E3FGHIJ3J4J5M1RWXY/LB1D1 |
Departure
| Time | 2026-05-07 19:22 |
|---|---|
| Airport | Hamad International Airport (OTHH) |
Arrival
| Time | N/A |
|---|---|
| Airport | Sydney Kingsford Smith International Airport (YSSY) |
| Time | Latitude | Longitude | Altitude | Speed | Heading |
|---|---|---|---|---|---|
| 2026-05-07 18:50 | 25.27023 | 51.60933 | 35 ft | 0 kts | 158° |
| 2026-05-07 19:02 | 25.27024 | 51.60933 | 2 ft | 0 kts | 158° |
| 2026-05-07 19:07 | 25.27025 | 51.60932 | 1 ft | 2 kts | 158° |
| 2026-05-07 19:07 | 25.27040 | 51.60926 | 34 ft | 2 kts | 158° |
| 2026-05-07 19:07 | 25.27055 | 51.60919 | 32 ft | 2 kts | 158° |
| 2026-05-07 19:07 | 25.27074 | 51.60910 | 31 ft | 3 kts | 158° |
| 2026-05-07 19:08 | 25.27096 | 51.60908 | 32 ft | 3 kts | 184° |
| 2026-05-07 19:08 | 25.27117 | 51.60917 | 34 ft | 3 kts | 210° |
| 2026-05-07 19:08 | 25.27131 | 51.60935 | 34 ft | 3 kts | 238° |
| 2026-05-07 19:08 | 25.27140 | 51.60956 | 31 ft | 1 kts | 247° |
| 2026-05-07 19:09 | 25.27140 | 51.60957 | 31 ft | 0 kts | 247° |
| 2026-05-07 19:10 | 25.27138 | 51.60953 | 31 ft | 5 kts | 248° |
| 2026-05-07 19:11 | 25.27122 | 51.60902 | 33 ft | 0 kts | 251° |
| 2026-05-07 19:12 | 25.27113 | 51.60874 | 35 ft | 8 kts | 250° |
| 2026-05-07 19:12 | 25.27092 | 51.60813 | 35 ft | 9 kts | 249° |
| 2026-05-07 19:12 | 25.27069 | 51.60746 | 35 ft | 10 kts | 257° |
| 2026-05-07 19:12 | 25.27078 | 51.60686 | 35 ft | 5 kts | 319° |
| 2026-05-07 19:13 | 25.27104 | 51.60661 | 35 ft | 4 kts | 293° |
| 2026-05-07 19:13 | 25.27106 | 51.60616 | 35 ft | 7 kts | 255° |
| 2026-05-07 19:13 | 25.27084 | 51.60549 | 35 ft | 10 kts | 249° |
| 2026-05-07 19:13 | 25.27058 | 51.60474 | 35 ft | 11 kts | 248° |
| 2026-05-07 19:14 | 25.27030 | 51.60396 | 35 ft | 11 kts | 248° |
| 2026-05-07 19:14 | 25.27000 | 51.60316 | 35 ft | 11 kts | 248° |
| 2026-05-07 19:14 | 25.26969 | 51.60232 | 34 ft | 12 kts | 248° |
| 2026-05-07 19:14 | 25.26937 | 51.60162 | 34 ft | 9 kts | 217° |
| 2026-05-07 19:15 | 25.26865 | 51.60161 | 33 ft | 14 kts | 159° |
| 2026-05-07 19:15 | 25.26769 | 51.60203 | 33 ft | 16 kts | 158° |
| 2026-05-07 19:15 | 25.26663 | 51.60251 | 33 ft | 17 kts | 158° |
| 2026-05-07 19:15 | 25.26564 | 51.60294 | 34 ft | 14 kts | 159° |
| 2026-05-07 19:16 | 25.26467 | 51.60335 | 34 ft | 16 kts | 159° |
| 2026-05-07 19:16 | 25.26361 | 51.60382 | 34 ft | 17 kts | 157° |
| 2026-05-07 19:16 | 25.26247 | 51.60434 | 34 ft | 18 kts | 157° |
| 2026-05-07 19:16 | 25.26124 | 51.60488 | 34 ft | 20 kts | 159° |
| 2026-05-07 19:17 | 25.26000 | 51.60541 | 34 ft | 14 kts | 157° |
| 2026-05-07 19:17 | 25.25918 | 51.60578 | 34 ft | 14 kts | 157° |
| 2026-05-07 19:17 | 25.25823 | 51.60623 | 34 ft | 16 kts | 157° |
| 2026-05-07 19:17 | 25.25719 | 51.60669 | 34 ft | 14 kts | 160° |
| 2026-05-07 19:18 | 25.25663 | 51.60691 | 34 ft | 5 kts | 164° |
| 2026-05-07 19:18 | 25.25618 | 51.60686 | 34 ft | 8 kts | 212° |
| 2026-05-07 19:18 | 25.25599 | 51.60665 | 33 ft | 0 kts | 243° |
| 2026-05-07 19:19 | 25.25591 | 51.60648 | 33 ft | 6 kts | 243° |
| 2026-05-07 19:19 | 25.25571 | 51.60574 | 30 ft | 12 kts | 274° |
| 2026-05-07 19:19 | 25.25612 | 51.60512 | 30 ft | 10 kts | 334° |
| 2026-05-07 19:19 | 25.25622 | 51.60507 | 30 ft | 0 kts | 337° |
| 2026-05-07 19:20 | 25.25665 | 51.60487 | 30 ft | 28 kts | 337° |
| 2026-05-07 19:20 | 25.26040 | 51.60321 | 34 ft | 86 kts | 338° |
| 2026-05-07 19:21 | 25.26749 | 51.60010 | 30 ft | 130 kts | 338° |
| 2026-05-07 19:21 | 25.27683 | 51.59599 | 29 ft | 158 kts | 339° |
| 2026-05-07 19:21 | 25.28774 | 51.59133 | 52 ft | 175 kts | 339° |
| 2026-05-07 19:21 | 25.29890 | 51.58635 | 415 ft | 169 kts | 338° |
| 2026-05-07 19:22 | 25.30961 | 51.58111 | 809 ft | 167 kts | 335° |
| 2026-05-07 19:22 | 25.31999 | 51.57571 | 1214 ft | 163 kts | 336° |
| 2026-05-07 19:22 | 25.33080 | 51.57085 | 1378 ft | 174 kts | 339° |
| 2026-05-07 19:22 | 25.34273 | 51.56734 | 1429 ft | 183 kts | 4° |
| 2026-05-07 19:23 | 25.35471 | 51.57227 | 1528 ft | 191 kts | 38° |
| 2026-05-07 19:23 | 25.36205 | 51.58481 | 1588 ft | 206 kts | 74° |
| 2026-05-07 19:23 | 25.36160 | 51.60093 | 1642 ft | 216 kts | 104° |
| 2026-05-07 19:23 | 25.35561 | 51.61644 | 1705 ft | 225 kts | 115° |
| 2026-05-07 19:24 | 25.34796 | 51.63227 | 1832 ft | 241 kts | 116° |
| 2026-05-07 19:24 | 25.34007 | 51.64939 | 1950 ft | 258 kts | 114° |
| 2026-05-07 19:24 | 25.33221 | 51.66787 | 2092 ft | 273 kts | 112° |
| 2026-05-07 19:24 | 25.32444 | 51.68719 | 2432 ft | 277 kts | 112° |
| 2026-05-07 19:25 | 25.31671 | 51.70682 | 2871 ft | 277 kts | 111° |
| 2026-05-07 19:25 | 25.30904 | 51.72637 | 3325 ft | 279 kts | 111° |
| 2026-05-07 19:25 | 25.30130 | 51.74614 | 3742 ft | 278 kts | 111° |
| 2026-05-07 19:25 | 25.29368 | 51.76559 | 4218 ft | 277 kts | 112° |
| 2026-05-07 19:26 | 25.28595 | 51.78525 | 4659 ft | 278 kts | 112° |
| 2026-05-07 19:26 | 25.27825 | 51.80483 | 5102 ft | 277 kts | 112° |
| 2026-05-07 19:26 | 25.27056 | 51.82437 | 5576 ft | 278 kts | 112° |
| 2026-05-07 19:26 | 25.26284 | 51.84400 | 6021 ft | 278 kts | 112° |
| 2026-05-07 19:27 | 25.25515 | 51.86355 | 6512 ft | 277 kts | 112° |
| 2026-05-07 19:27 | 25.24748 | 51.88303 | 6986 ft | 275 kts | 112° |
| 2026-05-07 19:27 | 25.23981 | 51.90249 | 7429 ft | 274 kts | 112° |
| 2026-05-07 19:27 | 25.23218 | 51.92183 | 7819 ft | 279 kts | 113° |
| 2026-05-07 19:28 | 25.22439 | 51.94160 | 8222 ft | 281 kts | 113° |
| 2026-05-07 19:28 | 25.21656 | 51.96147 | 8619 ft | 283 kts | 113° |
| 2026-05-07 19:28 | 25.20871 | 51.98135 | 9123 ft | 283 kts | 113° |
| 2026-05-07 19:28 | 25.20085 | 52.00125 | 9594 ft | 283 kts | 113° |
| 2026-05-07 19:29 | 25.19295 | 52.02123 | 9973 ft | 286 kts | 113° |
| 2026-05-07 19:29 | 25.18491 | 52.04156 | 10211 ft | 296 kts | 113° |
| 2026-05-07 19:29 | 25.17650 | 52.06282 | 10323 ft | 308 kts | 114° |
| 2026-05-07 19:29 | 25.16775 | 52.08493 | 10446 ft | 319 kts | 113° |
| 2026-05-07 19:30 | 25.15870 | 52.10780 | 10542 ft | 332 kts | 113° |
| 2026-05-07 19:30 | 25.14936 | 52.13136 | 10782 ft | 338 kts | 114° |
| 2026-05-07 19:30 | 25.13986 | 52.15534 | 11062 ft | 342 kts | 114° |
| 2026-05-07 19:30 | 25.13031 | 52.17940 | 11508 ft | 344 kts | 114° |
| 2026-05-07 19:31 | 25.12072 | 52.20357 | 11904 ft | 346 kts | 114° |
| 2026-05-07 19:31 | 25.11101 | 52.22804 | 12283 ft | 348 kts | 114° |
| 2026-05-07 19:31 | 25.10122 | 52.25268 | 12637 ft | 352 kts | 114° |
| 2026-05-07 19:31 | 25.09138 | 52.27745 | 13037 ft | 354 kts | 114° |
| 2026-05-07 19:32 | 25.08145 | 52.30241 | 13419 ft | 356 kts | 114° |
| 2026-05-07 19:32 | 25.07144 | 52.32756 | 13743 ft | 360 kts | 114° |
| 2026-05-07 19:32 | 25.06133 | 52.35294 | 14096 ft | 362 kts | 115° |
| 2026-05-07 19:32 | 25.05119 | 52.37839 | 14537 ft | 362 kts | 115° |
| 2026-05-07 19:33 | 25.04109 | 52.40373 | 14925 ft | 362 kts | 115° |
| 2026-05-07 19:33 | 25.03105 | 52.42889 | 15281 ft | 364 kts | 115° |
| 2026-05-07 19:33 | 25.02064 | 52.45494 | 15611 ft | 367 kts | 115° |
| 2026-05-07 19:33 | 25.01039 | 52.48064 | 16029 ft | 366 kts | 116° |
| 2026-05-07 19:34 | 25.00137 | 52.50693 | 16367 ft | 370 kts | 110° |
| 2026-05-07 19:34 | 24.99342 | 52.53413 | 16660 ft | 373 kts | 110° |
| 2026-05-07 19:34 | 24.98542 | 52.56133 | 17015 ft | 375 kts | 110° |
| 2026-05-07 19:34 | 24.97734 | 52.58871 | 17377 ft | 376 kts | 110° |
| 2026-05-07 19:35 | 24.96920 | 52.61616 | 17715 ft | 378 kts | 110° |
| 2026-05-07 19:35 | 24.96110 | 52.64337 | 18041 ft | 380 kts | 110° |
| 2026-05-07 19:35 | 24.95288 | 52.67101 | 18361 ft | 381 kts | 110° |
| 2026-05-07 19:35 | 24.94533 | 52.69916 | 18610 ft | 384 kts | 107° |
| 2026-05-07 19:36 | 24.93850 | 52.72771 | 18875 ft | 386 kts | 107° |
| 2026-05-07 19:36 | 24.93158 | 52.75635 | 19121 ft | 388 kts | 107° |
| 2026-05-07 19:36 | 24.92459 | 52.78514 | 19412 ft | 390 kts | 107° |
| 2026-05-07 19:36 | 24.91753 | 52.81413 | 19643 ft | 393 kts | 107° |
| 2026-05-07 19:37 | 24.91044 | 52.84325 | 19905 ft | 395 kts | 107° |
| 2026-05-07 19:37 | 24.90331 | 52.87251 | 20166 ft | 396 kts | 107° |
| 2026-05-07 19:37 | 24.89612 | 52.90197 | 20395 ft | 399 kts | 107° |
| 2026-05-07 19:37 | 24.88888 | 52.93159 | 20636 ft | 402 kts | 107° |
| 2026-05-07 19:38 | 24.88162 | 52.96132 | 20902 ft | 403 kts | 107° |
| 2026-05-07 19:38 | 24.87432 | 52.99118 | 21134 ft | 406 kts | 107° |
| 2026-05-07 19:38 | 24.86694 | 53.02126 | 21346 ft | 408 kts | 107° |
| 2026-05-07 19:38 | 24.85953 | 53.05154 | 21589 ft | 410 kts | 107° |
| 2026-05-07 19:39 | 24.85209 | 53.08189 | 21842 ft | 412 kts | 107° |
| 2026-05-07 19:39 | 24.84457 | 53.11249 | 22073 ft | 414 kts | 107° |
| 2026-05-07 19:39 | 24.83704 | 53.14313 | 22299 ft | 416 kts | 107° |
| 2026-05-07 19:39 | 24.82945 | 53.17399 | 22509 ft | 419 kts | 107° |
| 2026-05-07 19:40 | 24.82180 | 53.20500 | 22762 ft | 420 kts | 106° |
| 2026-05-07 19:40 | 24.81414 | 53.23612 | 22976 ft | 423 kts | 107° |
| 2026-05-07 19:40 | 24.80640 | 53.26749 | 23163 ft | 426 kts | 107° |
| 2026-05-07 19:40 | 24.79861 | 53.29900 | 23424 ft | 427 kts | 106° |
| 2026-05-07 19:41 | 24.79083 | 53.33049 | 23597 ft | 429 kts | 107° |
| 2026-05-07 19:41 | 24.78297 | 53.36226 | 23738 ft | 432 kts | 107° |
| 2026-05-07 19:41 | 24.77504 | 53.39421 | 23981 ft | 432 kts | 107° |
| 2026-05-07 19:41 | 24.76711 | 53.42615 | 24137 ft | 434 kts | 107° |
| 2026-05-07 19:42 | 24.75914 | 53.45823 | 24296 ft | 437 kts | 107° |
| 2026-05-07 19:42 | 24.75111 | 53.49049 | 24518 ft | 438 kts | 107° |
| 2026-05-07 19:42 | 24.74304 | 53.52290 | 24707 ft | 439 kts | 107° |
| 2026-05-07 19:42 | 24.73496 | 53.55533 | 24909 ft | 440 kts | 107° |
| 2026-05-07 19:43 | 24.72683 | 53.58793 | 25079 ft | 442 kts | 107° |
| 2026-05-07 19:43 | 24.71869 | 53.62055 | 25275 ft | 444 kts | 107° |
| 2026-05-07 19:43 | 24.71049 | 53.65335 | 25445 ft | 446 kts | 107° |
| 2026-05-07 19:43 | 24.70224 | 53.68630 | 25621 ft | 448 kts | 107° |
| 2026-05-07 19:44 | 24.69396 | 53.71938 | 25802 ft | 450 kts | 107° |
| 2026-05-07 19:44 | 24.68564 | 53.75253 | 25975 ft | 451 kts | 107° |
| 2026-05-07 19:44 | 24.67727 | 53.78589 | 26160 ft | 453 kts | 107° |
| 2026-05-07 19:44 | 24.66884 | 53.81943 | 26348 ft | 455 kts | 107° |
| 2026-05-07 19:45 | 24.66040 | 53.85299 | 26536 ft | 457 kts | 107° |
| 2026-05-07 19:45 | 24.65191 | 53.88675 | 26720 ft | 459 kts | 107° |
| 2026-05-07 19:45 | 24.64335 | 53.92069 | 26921 ft | 461 kts | 107° |
| 2026-05-07 19:45 | 24.63480 | 53.95470 | 27115 ft | 463 kts | 107° |
| 2026-05-07 19:46 | 24.62685 | 53.98913 | 27312 ft | 466 kts | 105° |
| 2026-05-07 19:46 | 24.61935 | 54.02379 | 27530 ft | 467 kts | 105° |
| 2026-05-07 19:46 | 24.61186 | 54.05862 | 27729 ft | 469 kts | 105° |
| 2026-05-07 19:46 | 24.60428 | 54.09346 | 27938 ft | 471 kts | 105° |
| 2026-05-07 19:47 | 24.59654 | 54.12862 | 28159 ft | 473 kts | 105° |
| 2026-05-07 19:47 | 24.58884 | 54.16336 | 28372 ft | 476 kts | 105° |
| 2026-05-07 19:47 | 24.58087 | 54.19917 | 28602 ft | 478 kts | 105° |
| 2026-05-07 19:47 | 24.57296 | 54.23461 | 28811 ft | 480 kts | 105° |
| 2026-05-07 19:48 | 24.56496 | 54.27044 | 29034 ft | 483 kts | 105° |
| 2026-05-07 19:48 | 24.55693 | 54.30632 | 29240 ft | 485 kts | 105° |
| 2026-05-07 19:48 | 24.54886 | 54.34238 | 29472 ft | 487 kts | 105° |
| 2026-05-07 19:48 | 24.54084 | 54.37816 | 29722 ft | 490 kts | 105° |
| 2026-05-07 19:49 | 24.53337 | 54.41476 | 29927 ft | 493 kts | 103° |
| 2026-05-07 19:49 | 24.52670 | 54.45175 | 30160 ft | 495 kts | 103° |
| 2026-05-07 19:49 | 24.52015 | 54.48886 | 30397 ft | 496 kts | 103° |
| 2026-05-07 19:49 | 24.51321 | 54.52600 | 30589 ft | 497 kts | 106° |
| 2026-05-07 19:50 | 24.50297 | 54.56216 | 30844 ft | 495 kts | 112° |
| 2026-05-07 19:50 | 24.49132 | 54.59773 | 31075 ft | 497 kts | 111° |
| 2026-05-07 19:50 | 24.47970 | 54.63367 | 31294 ft | 499 kts | 111° |
| 2026-05-07 19:50 | 24.46812 | 54.66964 | 31514 ft | 500 kts | 111° |
| 2026-05-07 19:51 | 24.45654 | 54.70560 | 31743 ft | 502 kts | 111° |
| 2026-05-07 19:51 | 24.44486 | 54.74177 | 31962 ft | 503 kts | 111° |
| 2026-05-07 19:51 | 24.43314 | 54.77801 | 32174 ft | 505 kts | 111° |
| 2026-05-07 19:51 | 24.42135 | 54.81439 | 32392 ft | 507 kts | 111° |
| 2026-05-07 19:52 | 24.40954 | 54.85083 | 32618 ft | 508 kts | 111° |
| 2026-05-07 19:52 | 24.39764 | 54.88749 | 32843 ft | 509 kts | 111° |
| 2026-05-07 19:52 | 24.38576 | 54.92408 | 33069 ft | 511 kts | 111° |
| 2026-05-07 19:52 | 24.37381 | 54.96082 | 33278 ft | 512 kts | 112° |
| 2026-05-07 19:53 | 24.36182 | 54.99767 | 33590 ft | 512 kts | 111° |
| 2026-05-07 19:53 | 24.34984 | 55.03445 | 33824 ft | 513 kts | 111° |
| 2026-05-07 19:53 | 24.33649 | 55.07070 | 33984 ft | 513 kts | 118° |
| 2026-05-07 19:53 | 24.31969 | 55.10503 | 34179 ft | 512 kts | 124° |
| 2026-05-07 19:54 | 24.30029 | 55.13779 | 34357 ft | 512 kts | 126° |
| 2026-05-07 19:54 | 24.28082 | 55.17053 | 34555 ft | 513 kts | 125° |
| 2026-05-07 19:54 | 24.26144 | 55.20335 | 34804 ft | 513 kts | 125° |
| 2026-05-07 19:54 | 24.24859 | 55.22515 | 34986 ft | 512 kts | 125° |
| 2026-05-07 19:55 | 24.22923 | 55.25795 | 35253 ft | 512 kts | 125° |
| 2026-05-07 19:55 | 24.20996 | 55.29056 | 35518 ft | 511 kts | 125° |
| 2026-05-07 19:55 | 24.19063 | 55.32327 | 35766 ft | 510 kts | 124° |
| 2026-05-07 19:55 | 24.17337 | 55.35705 | 36087 ft | 510 kts | 117° |
| 2026-05-07 19:56 | 24.15919 | 55.39273 | 36310 ft | 510 kts | 114° |
| 2026-05-07 19:56 | 24.14561 | 55.42857 | 36549 ft | 509 kts | 114° |
| 2026-05-07 19:56 | 24.13194 | 55.46427 | 36790 ft | 508 kts | 115° |
| 2026-05-07 19:56 | 24.11824 | 55.49985 | 36996 ft | 508 kts | 115° |
| 2026-05-07 19:57 | 24.10451 | 55.53543 | 37235 ft | 507 kts | 115° |
| 2026-05-07 19:57 | 24.09075 | 55.57108 | 37370 ft | 508 kts | 115° |
| 2026-05-07 19:57 | 24.07702 | 55.60663 | 37594 ft | 507 kts | 115° |
| 2026-05-07 19:57 | 24.06321 | 55.64212 | 37802 ft | 506 kts | 117° |
| 2026-05-07 19:58 | 24.04738 | 55.67643 | 37983 ft | 504 kts | 120° |
| 2026-05-07 19:58 | 24.03107 | 55.71038 | 38178 ft | 504 kts | 120° |
| 2026-05-07 19:58 | 24.01484 | 55.74439 | 38351 ft | 504 kts | 120° |
| 2026-05-07 19:58 | 23.99865 | 55.77840 | 38457 ft | 505 kts | 120° |
| 2026-05-07 19:59 | 23.98241 | 55.81248 | 38580 ft | 506 kts | 120° |
| 2026-05-07 19:59 | 23.96611 | 55.84665 | 38693 ft | 507 kts | 120° |
| 2026-05-07 19:59 | 23.93342 | 55.91508 | 38912 ft | 508 kts | 120° |
| 2026-05-07 20:00 | 23.90058 | 55.98373 | 39112 ft | 510 kts | 120° |
| 2026-05-07 20:00 | 23.88415 | 56.01803 | 39220 ft | 511 kts | 120° |
| 2026-05-07 20:00 | 23.86743 | 56.05293 | 39315 ft | 511 kts | 120° |
| 2026-05-07 20:01 | 23.85092 | 56.08734 | 39466 ft | 510 kts | 120° |
| 2026-05-07 20:01 | 23.83469 | 56.12120 | 39582 ft | 511 kts | 120° |
| 2026-05-07 20:01 | 23.80135 | 56.19062 | 39760 ft | 513 kts | 120° |
| 2026-05-07 20:02 | 23.78474 | 56.22516 | 39862 ft | 514 kts | 120° |
| 2026-05-07 20:02 | 23.76837 | 56.25919 | 39943 ft | 515 kts | 120° |
| 2026-05-07 20:02 | 23.73501 | 56.32845 | 40128 ft | 516 kts | 120° |
| 2026-05-07 20:03 | 23.70151 | 56.39792 | 40324 ft | 517 kts | 120° |
| 2026-05-07 20:03 | 23.68473 | 56.43268 | 40451 ft | 517 kts | 120° |
| 2026-05-07 20:03 | 23.66803 | 56.46725 | 40647 ft | 515 kts | 120° |
| 2026-05-07 20:04 | 23.65134 | 56.50175 | 40768 ft | 515 kts | 120° |
| 2026-05-07 20:04 | 23.63462 | 56.53630 | 40861 ft | 515 kts | 120° |
| 2026-05-07 20:04 | 23.60108 | 56.60554 | 40948 ft | 518 kts | 120° |
| 2026-05-07 20:05 | 23.56761 | 56.67456 | 40917 ft | 514 kts | 120° |
| 2026-05-07 20:05 | 23.53412 | 56.74348 | 40913 ft | 515 kts | 120° |
| 2026-05-07 20:06 | 23.50059 | 56.81239 | 40955 ft | 514 kts | 120° |
| 2026-05-07 20:06 | 23.46713 | 56.88107 | 40932 ft | 514 kts | 120° |
| 2026-05-07 20:07 | 23.43362 | 56.94979 | 40941 ft | 513 kts | 120° |
| 2026-05-07 20:07 | 23.40011 | 57.01836 | 40932 ft | 513 kts | 120° |
| 2026-05-07 20:08 | 23.36671 | 57.08692 | 40954 ft | 514 kts | 119° |
| 2026-05-07 20:08 | 23.33518 | 57.15681 | 40960 ft | 515 kts | 118° |
| 2026-05-07 20:09 | 23.30389 | 57.22674 | 40950 ft | 513 kts | 118° |
| 2026-05-07 20:10 | 23.25657 | 57.33118 | 40956 ft | 513 kts | 118° |
| 2026-05-07 20:10 | 23.22492 | 57.40073 | 40939 ft | 514 kts | 118° |
| 2026-05-07 20:11 | 23.19318 | 57.47038 | 40960 ft | 514 kts | 118° |
| 2026-05-07 20:11 | 23.16140 | 57.54003 | 40944 ft | 514 kts | 118° |
| 2026-05-07 20:12 | 23.12968 | 57.60945 | 40947 ft | 513 kts | 118° |
| 2026-05-07 20:12 | 23.09791 | 57.67888 | 40939 ft | 513 kts | 118° |
| 2026-05-07 20:13 | 23.06615 | 57.74820 | 40926 ft | 513 kts | 118° |
| 2026-05-07 20:13 | 23.03452 | 57.81710 | 40916 ft | 513 kts | 118° |
| 2026-05-07 20:14 | 23.00265 | 57.88647 | 40920 ft | 514 kts | 118° |
| 2026-05-07 20:14 | 22.97071 | 57.95584 | 40916 ft | 514 kts | 118° |
| 2026-05-07 20:15 | 22.93883 | 58.02499 | 40904 ft | 512 kts | 118° |
| 2026-05-07 20:15 | 22.90690 | 58.09415 | 40897 ft | 512 kts | 118° |
| 2026-05-07 20:16 | 22.87498 | 58.16316 | 40888 ft | 512 kts | 118° |
| 2026-05-07 20:16 | 22.84305 | 58.23213 | 40886 ft | 512 kts | 118° |
| 2026-05-07 20:17 | 22.81101 | 58.30123 | 40887 ft | 513 kts | 118° |
| 2026-05-07 20:17 | 22.77899 | 58.37019 | 40891 ft | 513 kts | 118° |
| 2026-05-07 20:18 | 22.74697 | 58.43906 | 40888 ft | 511 kts | 118° |
| 2026-05-07 20:18 | 22.71496 | 58.50779 | 40883 ft | 511 kts | 118° |
| 2026-05-07 20:19 | 22.67939 | 58.57405 | 40874 ft | 509 kts | 129° |
| 2026-05-07 20:19 | 22.63066 | 58.62881 | 40866 ft | 504 kts | 144° |
| 2026-05-07 20:20 | 22.57218 | 58.67032 | 40885 ft | 502 kts | 150° |
| 2026-05-07 20:20 | 22.51256 | 58.70962 | 40872 ft | 502 kts | 150° |
| 2026-05-07 20:21 | 22.45302 | 58.74894 | 40871 ft | 501 kts | 150° |
| 2026-05-07 20:21 | 22.39341 | 58.78818 | 40863 ft | 501 kts | 150° |
| 2026-05-07 20:22 | 22.33383 | 58.82733 | 40870 ft | 501 kts | 150° |
| 2026-05-07 20:22 | 22.27425 | 58.86645 | 40876 ft | 501 kts | 150° |
| 2026-05-07 20:23 | 22.21462 | 58.90556 | 40855 ft | 501 kts | 150° |
| 2026-05-07 20:23 | 22.15503 | 58.94461 | 40854 ft | 501 kts | 150° |
| 2026-05-07 20:24 | 22.09548 | 58.98359 | 40854 ft | 501 kts | 150° |
| 2026-05-07 20:24 | 22.03589 | 59.02255 | 40856 ft | 501 kts | 150° |
| 2026-05-07 20:25 | 21.97669 | 59.06123 | 40849 ft | 501 kts | 150° |
| 2026-05-07 20:25 | 21.91657 | 59.10047 | 40867 ft | 502 kts | 150° |
| 2026-05-07 20:26 | 21.85723 | 59.13916 | 40844 ft | 501 kts | 150° |
| 2026-05-07 20:26 | 21.79767 | 59.17796 | 40833 ft | 501 kts | 150° |
| 2026-05-07 20:27 | 21.73812 | 59.21670 | 40832 ft | 500 kts | 150° |
| 2026-05-07 20:27 | 21.67849 | 59.25547 | 40830 ft | 500 kts | 150° |
| 2026-05-07 20:28 | 21.61880 | 59.29423 | 40836 ft | 502 kts | 150° |
| 2026-05-07 20:28 | 21.55915 | 59.33295 | 40823 ft | 500 kts | 150° |
| 2026-05-07 20:29 | 21.49957 | 59.37160 | 40823 ft | 500 kts | 150° |
| 2026-05-07 20:29 | 21.43993 | 59.41025 | 40815 ft | 500 kts | 150° |
| 2026-05-07 20:30 | 21.38031 | 59.44884 | 40819 ft | 500 kts | 150° |
| 2026-05-07 20:30 | 21.32074 | 59.48737 | 40827 ft | 500 kts | 150° |
| 2026-05-07 20:31 | 21.26113 | 59.52588 | 40818 ft | 500 kts | 150° |
| 2026-05-07 20:31 | 21.20157 | 59.56433 | 40821 ft | 500 kts | 150° |
| 2026-05-07 20:32 | 21.14200 | 59.60272 | 40814 ft | 499 kts | 150° |
| 2026-05-07 20:32 | 21.08240 | 59.64110 | 40825 ft | 500 kts | 151° |
| 2026-05-07 20:33 | 21.02279 | 59.67946 | 40835 ft | 500 kts | 151° |
| 2026-05-07 20:33 | 20.96313 | 59.71779 | 40838 ft | 501 kts | 150° |
| 2026-05-07 20:34 | 20.90342 | 59.75611 | 40823 ft | 500 kts | 151° |
| 2026-05-07 20:34 | 20.84375 | 59.79436 | 40824 ft | 500 kts | 150° |
| 2026-05-07 20:35 | 20.78410 | 59.83257 | 40826 ft | 500 kts | 150° |
| 2026-05-07 20:35 | 20.72492 | 59.87045 | 40823 ft | 499 kts | 150° |
| 2026-05-07 20:36 | 20.66498 | 59.90878 | 40836 ft | 500 kts | 151° |
| 2026-05-07 20:36 | 20.60558 | 59.94672 | 40833 ft | 500 kts | 151° |
| 2026-05-07 20:37 | 20.54552 | 59.98504 | 40829 ft | 500 kts | 150° |
| 2026-05-07 20:37 | 20.48619 | 60.02288 | 40829 ft | 500 kts | 151° |
| 2026-05-07 20:38 | 20.42612 | 60.06114 | 40826 ft | 500 kts | 150° |
| 2026-05-07 20:38 | 20.36641 | 60.09915 | 40842 ft | 500 kts | 151° |
| 2026-05-07 20:39 | 20.31669 | 60.13077 | 40852 ft | 501 kts | 150° |
| 2026-05-07 20:39 | 20.25685 | 60.16879 | 40832 ft | 499 kts | 151° |
| 2026-05-07 20:40 | 20.19718 | 60.20666 | 40833 ft | 500 kts | 150° |
| 2026-05-07 20:40 | 20.13736 | 60.24460 | 40832 ft | 500 kts | 150° |
| 2026-05-07 20:41 | 20.07767 | 60.28252 | 40832 ft | 500 kts | 149° |
| 2026-05-07 20:41 | 20.02165 | 60.32655 | 40864 ft | 503 kts | 139° |
| 2026-05-07 20:42 | 19.96964 | 60.37642 | 40822 ft | 503 kts | 139° |
| 2026-05-07 20:42 | 19.91756 | 60.42597 | 40832 ft | 502 kts | 139° |
| 2026-05-07 20:43 | 19.86551 | 60.47542 | 40839 ft | 502 kts | 139° |
| 2026-05-07 20:43 | 19.81331 | 60.52498 | 40835 ft | 503 kts | 139° |
| 2026-05-07 20:44 | 19.76118 | 60.57442 | 40839 ft | 503 kts | 140° |
| 2026-05-07 20:44 | 19.70893 | 60.62392 | 40838 ft | 504 kts | 139° |
| 2026-05-07 20:45 | 19.65704 | 60.67303 | 40841 ft | 503 kts | 139° |
| 2026-05-07 20:45 | 19.60450 | 60.72273 | 40837 ft | 503 kts | 140° |
| 2026-05-07 20:46 | 19.55230 | 60.77206 | 40840 ft | 503 kts | 139° |
| 2026-05-07 20:46 | 19.50041 | 60.82103 | 40841 ft | 502 kts | 139° |
| 2026-05-07 20:47 | 19.44817 | 60.87031 | 40868 ft | 503 kts | 139° |
| 2026-05-07 20:47 | 19.39559 | 60.91987 | 40871 ft | 503 kts | 139° |
| 2026-05-07 20:48 | 19.34350 | 60.96890 | 40847 ft | 504 kts | 139° |
| 2026-05-07 20:48 | 19.29110 | 61.01820 | 40840 ft | 504 kts | 139° |
| 2026-05-07 20:49 | 19.23871 | 61.06744 | 40867 ft | 504 kts | 140° |
| 2026-05-07 20:49 | 19.18626 | 61.11669 | 40873 ft | 504 kts | 140° |
| 2026-05-07 20:50 | 19.13378 | 61.16591 | 40867 ft | 504 kts | 139° |
| 2026-05-07 20:50 | 19.08138 | 61.21504 | 40839 ft | 503 kts | 140° |
| 2026-05-07 20:51 | 19.02897 | 61.26411 | 40854 ft | 503 kts | 139° |
| 2026-05-07 20:51 | 18.97665 | 61.31306 | 40875 ft | 502 kts | 139° |
| 2026-05-07 20:52 | 18.92439 | 61.36193 | 40845 ft | 502 kts | 140° |
| 2026-05-07 20:52 | 18.87209 | 61.41078 | 40846 ft | 501 kts | 140° |
| 2026-05-07 20:53 | 18.81990 | 61.45949 | 40845 ft | 501 kts | 140° |
| 2026-05-07 20:53 | 18.76759 | 61.50826 | 40844 ft | 501 kts | 140° |
| 2026-05-07 20:54 | 18.71534 | 61.55694 | 40850 ft | 501 kts | 140° |
| 2026-05-07 20:54 | 18.66306 | 61.60560 | 40848 ft | 502 kts | 140° |
| 2026-05-07 20:55 | 18.61070 | 61.65429 | 40856 ft | 502 kts | 140° |
| 2026-05-07 20:55 | 18.55832 | 61.70297 | 40880 ft | 502 kts | 140° |
| 2026-05-07 20:56 | 18.50586 | 61.75167 | 40849 ft | 502 kts | 140° |
| 2026-05-07 20:56 | 18.45345 | 61.80028 | 40856 ft | 502 kts | 140° |
| 2026-05-07 20:57 | 18.40105 | 61.84886 | 40874 ft | 502 kts | 140° |
| 2026-05-07 20:57 | 18.34860 | 61.89744 | 40884 ft | 502 kts | 140° |
| 2026-05-07 20:58 | 18.29618 | 61.94593 | 40856 ft | 501 kts | 140° |
| 2026-05-07 20:58 | 18.24384 | 61.99433 | 40845 ft | 502 kts | 140° |
| 2026-05-07 20:59 | 18.19147 | 62.04270 | 40872 ft | 501 kts | 140° |
| 2026-05-07 20:59 | 18.13908 | 62.09107 | 40883 ft | 500 kts | 140° |
| 2026-05-07 21:00 | 18.08671 | 62.13936 | 40871 ft | 500 kts | 140° |
| 2026-05-07 21:00 | 18.03443 | 62.18753 | 40849 ft | 500 kts | 140° |
| 2026-05-07 21:01 | 17.98216 | 62.23566 | 40855 ft | 500 kts | 140° |
| 2026-05-07 21:01 | 17.92985 | 62.28378 | 40878 ft | 499 kts | 140° |
| 2026-05-07 21:02 | 17.87754 | 62.33187 | 40853 ft | 500 kts | 140° |
| 2026-05-07 21:02 | 17.82558 | 62.37959 | 40847 ft | 500 kts | 140° |
| 2026-05-07 21:03 | 17.77295 | 62.42791 | 40856 ft | 500 kts | 140° |
| 2026-05-07 21:03 | 17.72100 | 62.47554 | 40881 ft | 500 kts | 140° |
| 2026-05-07 21:04 | 17.66862 | 62.52353 | 40880 ft | 500 kts | 140° |
| 2026-05-07 21:04 | 17.61630 | 62.57143 | 40850 ft | 500 kts | 140° |
| 2026-05-07 21:05 | 17.56393 | 62.61934 | 40877 ft | 500 kts | 140° |
| 2026-05-07 21:05 | 17.51154 | 62.66723 | 40882 ft | 499 kts | 140° |
| 2026-05-07 21:06 | 17.45919 | 62.71504 | 40862 ft | 499 kts | 140° |
| 2026-05-07 21:06 | 17.40681 | 62.76284 | 40858 ft | 499 kts | 140° |
| 2026-05-07 21:07 | 17.35448 | 62.81056 | 40882 ft | 499 kts | 140° |
| 2026-05-07 21:07 | 17.30213 | 62.85826 | 40884 ft | 498 kts | 140° |
| 2026-05-07 21:08 | 17.24979 | 62.90591 | 40862 ft | 498 kts | 140° |
| 2026-05-07 21:08 | 17.19749 | 62.95349 | 40852 ft | 499 kts | 140° |
| 2026-05-07 21:09 | 17.14517 | 63.00105 | 40864 ft | 498 kts | 140° |
| 2026-05-07 21:09 | 17.09290 | 63.04854 | 40882 ft | 498 kts | 140° |
| 2026-05-07 21:10 | 17.04055 | 63.09608 | 40869 ft | 498 kts | 140° |
| 2026-05-07 21:10 | 16.98814 | 63.14332 | 40865 ft | 498 kts | 141° |
| 2026-05-07 21:11 | 16.93468 | 63.18942 | 40864 ft | 498 kts | 141° |
| 2026-05-07 21:11 | 16.85461 | 63.25854 | 40864 ft | 498 kts | 141° |
| 2026-05-07 21:12 | 16.80132 | 63.30472 | 40884 ft | 498 kts | 141° |
| 2026-05-07 21:12 | 16.74792 | 63.35096 | 40870 ft | 499 kts | 141° |
| 2026-05-07 21:13 | 16.69459 | 63.39711 | 40866 ft | 499 kts | 141° |
| 2026-05-07 21:13 | 16.64114 | 63.44332 | 40890 ft | 499 kts | 141° |
| 2026-05-07 21:14 | 16.58778 | 63.48941 | 40895 ft | 498 kts | 141° |
| 2026-05-07 21:14 | 16.53432 | 63.53556 | 40885 ft | 499 kts | 141° |
| 2026-05-07 21:15 | 16.48092 | 63.58162 | 40885 ft | 498 kts | 141° |
| 2026-05-07 21:15 | 16.42749 | 63.62768 | 40881 ft | 498 kts | 141° |
| 2026-05-07 21:16 | 16.37413 | 63.67364 | 40882 ft | 498 kts | 141° |
| 2026-05-07 21:16 | 16.32080 | 63.71954 | 40887 ft | 497 kts | 141° |
| 2026-05-07 21:17 | 16.26741 | 63.76546 | 40886 ft | 497 kts | 141° |
| 2026-05-07 21:17 | 16.21411 | 63.81127 | 40862 ft | 497 kts | 141° |
| 2026-05-07 21:18 | 16.16085 | 63.85701 | 40857 ft | 497 kts | 141° |
| 2026-05-07 21:18 | 16.10770 | 63.90263 | 40884 ft | 496 kts | 141° |
| 2026-05-07 21:19 | 16.05433 | 63.94839 | 40891 ft | 496 kts | 141° |
| 2026-05-07 21:19 | 16.00108 | 63.99403 | 40869 ft | 496 kts | 141° |
| 2026-05-07 21:20 | 15.94784 | 64.03962 | 40862 ft | 496 kts | 141° |
| 2026-05-07 21:20 | 15.89457 | 64.08521 | 40887 ft | 496 kts | 141° |
| 2026-05-07 21:21 | 15.84127 | 64.13079 | 40890 ft | 496 kts | 141° |
| 2026-05-07 21:21 | 15.78830 | 64.17605 | 40866 ft | 496 kts | 141° |
| 2026-05-07 21:22 | 15.73499 | 64.22158 | 40863 ft | 496 kts | 141° |
| 2026-05-07 21:22 | 15.69031 | 64.25971 | 40891 ft | 496 kts | 141° |
| 2026-05-07 21:23 | 15.63704 | 64.30514 | 40883 ft | 496 kts | 141° |
| 2026-05-07 21:23 | 15.58374 | 64.35056 | 40858 ft | 496 kts | 141° |
| 2026-05-07 21:24 | 15.53036 | 64.39603 | 40863 ft | 496 kts | 141° |
| 2026-05-07 21:24 | 15.47707 | 64.44138 | 40888 ft | 496 kts | 141° |
| 2026-05-07 21:25 | 15.42375 | 64.48673 | 40884 ft | 495 kts | 141° |
| 2026-05-07 21:25 | 15.37046 | 64.53202 | 40859 ft | 496 kts | 141° |
| 2026-05-07 21:26 | 15.31717 | 64.57728 | 40859 ft | 496 kts | 141° |
| 2026-05-07 21:26 | 15.26420 | 64.62224 | 40888 ft | 495 kts | 141° |
| 2026-05-07 21:27 | 15.21091 | 64.66744 | 40887 ft | 495 kts | 141° |
| 2026-05-07 21:27 | 15.15760 | 64.71262 | 40871 ft | 495 kts | 141° |
| 2026-05-07 21:28 | 15.10434 | 64.75774 | 40865 ft | 495 kts | 141° |
| 2026-05-07 21:28 | 15.05105 | 64.80285 | 40886 ft | 494 kts | 141° |
| 2026-05-07 21:29 | 14.99781 | 64.84788 | 40896 ft | 494 kts | 141° |
| 2026-05-07 21:29 | 14.94463 | 64.89284 | 40871 ft | 494 kts | 141° |
| 2026-05-07 21:30 | 14.89144 | 64.93777 | 40859 ft | 494 kts | 141° |
| 2026-05-07 21:30 | 14.83828 | 64.98265 | 40863 ft | 493 kts | 141° |
| 2026-05-07 21:31 | 14.78524 | 65.02740 | 40884 ft | 493 kts | 141° |
| 2026-05-07 21:31 | 14.73210 | 65.07221 | 40889 ft | 492 kts | 141° |
| 2026-05-07 21:32 | 14.67899 | 65.11696 | 40864 ft | 492 kts | 141° |
| 2026-05-07 21:32 | 14.62588 | 65.16169 | 40862 ft | 492 kts | 141° |
| 2026-05-07 21:33 | 14.57281 | 65.20635 | 40869 ft | 492 kts | 141° |
| 2026-05-07 21:33 | 14.51975 | 65.25091 | 40888 ft | 492 kts | 141° |
| 2026-05-07 21:34 | 14.46697 | 65.29524 | 40869 ft | 492 kts | 141° |
| 2026-05-07 21:34 | 14.41391 | 65.33979 | 40865 ft | 492 kts | 141° |
| 2026-05-07 21:35 | 14.36074 | 65.38441 | 40865 ft | 492 kts | 141° |
| 2026-05-07 21:35 | 14.30762 | 65.42895 | 40864 ft | 492 kts | 141° |
| 2026-05-07 21:36 | 14.25445 | 65.47349 | 40870 ft | 493 kts | 141° |
| 2026-05-07 21:36 | 14.20123 | 65.51806 | 40869 ft | 493 kts | 141° |
| 2026-05-07 21:37 | 14.14803 | 65.56258 | 40871 ft | 493 kts | 141° |
| 2026-05-07 21:37 | 14.09479 | 65.60710 | 40869 ft | 493 kts | 141° |
| 2026-05-07 21:38 | 14.04153 | 65.65162 | 40863 ft | 493 kts | 141° |
| 2026-05-07 21:38 | 13.98832 | 65.69606 | 40888 ft | 493 kts | 141° |
| 2026-05-07 21:39 | 13.93509 | 65.74050 | 40891 ft | 493 kts | 141° |
| 2026-05-07 21:39 | 13.88177 | 65.78498 | 40862 ft | 493 kts | 141° |
| 2026-05-07 21:40 | 13.82853 | 65.82936 | 40858 ft | 493 kts | 141° |
| 2026-05-07 21:40 | 13.77529 | 65.87373 | 40881 ft | 493 kts | 141° |
| 2026-05-07 21:41 | 13.72197 | 65.91813 | 40888 ft | 493 kts | 141° |
| 2026-05-07 21:41 | 13.66872 | 65.96245 | 40869 ft | 493 kts | 141° |
| 2026-05-07 21:42 | 13.61543 | 66.00677 | 40867 ft | 493 kts | 141° |
| 2026-05-07 21:42 | 13.56216 | 66.05105 | 40868 ft | 492 kts | 141° |
| 2026-05-07 21:43 | 13.50892 | 66.09528 | 40893 ft | 492 kts | 141° |
| 2026-05-07 21:43 | 13.45569 | 66.13947 | 40864 ft | 491 kts | 141° |
| 2026-05-07 21:44 | 13.40249 | 66.18361 | 40865 ft | 491 kts | 141° |
| 2026-05-07 21:44 | 13.34933 | 66.22769 | 40870 ft | 491 kts | 141° |
| 2026-05-07 21:45 | 13.29620 | 66.27173 | 40887 ft | 490 kts | 141° |
| 2026-05-07 21:45 | 13.24311 | 66.31571 | 40882 ft | 490 kts | 141° |
| 2026-05-07 21:46 | 13.19012 | 66.35958 | 40861 ft | 489 kts | 141° |
| 2026-05-07 21:46 | 13.13715 | 66.40340 | 40856 ft | 489 kts | 141° |
| 2026-05-07 21:47 | 13.08412 | 66.44725 | 40852 ft | 489 kts | 141° |
| 2026-05-07 21:47 | 13.03119 | 66.49099 | 40852 ft | 489 kts | 141° |
| 2026-05-07 21:48 | 12.97821 | 66.53475 | 40848 ft | 489 kts | 141° |
| 2026-05-07 21:48 | 12.92520 | 66.57851 | 40853 ft | 489 kts | 141° |
| 2026-05-07 21:49 | 12.87217 | 66.62226 | 40850 ft | 490 kts | 141° |
| 2026-05-07 21:49 | 12.81908 | 66.66603 | 40854 ft | 490 kts | 141° |
| 2026-05-07 21:50 | 12.76600 | 66.70978 | 40861 ft | 490 kts | 141° |
| 2026-05-07 21:50 | 12.71294 | 66.75348 | 40852 ft | 490 kts | 141° |
| 2026-05-07 21:51 | 12.66019 | 66.79690 | 40842 ft | 490 kts | 141° |
| 2026-05-07 21:51 | 12.60665 | 66.84095 | 40845 ft | 490 kts | 141° |
| 2026-05-07 21:52 | 12.55349 | 66.88466 | 40848 ft | 490 kts | 141° |
| 2026-05-07 21:52 | 12.50080 | 66.92796 | 40878 ft | 489 kts | 141° |
| 2026-05-07 21:53 | 12.44772 | 66.97156 | 40848 ft | 489 kts | 141° |
| 2026-05-07 21:53 | 12.39472 | 67.01507 | 40847 ft | 488 kts | 141° |
| 2026-05-07 21:54 | 12.34182 | 67.05847 | 40853 ft | 487 kts | 141° |
| 2026-05-07 21:54 | 12.28893 | 67.10185 | 40841 ft | 487 kts | 141° |
| 2026-05-07 21:55 | 12.23610 | 67.14515 | 40850 ft | 486 kts | 141° |
| 2026-05-07 21:55 | 12.18327 | 67.18843 | 40833 ft | 486 kts | 141° |
| 2026-05-07 21:56 | 12.13051 | 67.23162 | 40836 ft | 486 kts | 141° |
| 2026-05-07 21:56 | 12.07779 | 67.27476 | 40832 ft | 486 kts | 141° |
| 2026-05-07 21:57 | 12.02505 | 67.31790 | 40840 ft | 486 kts | 141° |
| 2026-05-07 21:57 | 11.97233 | 67.36102 | 40852 ft | 485 kts | 141° |
| 2026-05-07 21:58 | 11.91965 | 67.40405 | 40844 ft | 485 kts | 141° |
| 2026-05-07 21:58 | 11.86684 | 67.44716 | 40845 ft | 485 kts | 141° |
| 2026-05-07 21:59 | 11.81413 | 67.49020 | 40840 ft | 485 kts | 141° |
| 2026-05-07 21:59 | 11.76175 | 67.53293 | 40838 ft | 485 kts | 141° |
| 2026-05-07 22:00 | 11.70904 | 67.57592 | 40836 ft | 485 kts | 141° |
| 2026-05-07 22:00 | 11.65632 | 67.61889 | 40847 ft | 485 kts | 141° |
| 2026-05-07 22:01 | 11.60358 | 67.66186 | 40838 ft | 485 kts | 141° |
| 2026-05-07 22:01 | 11.55082 | 67.70482 | 40820 ft | 485 kts | 141° |
| 2026-05-07 22:02 | 11.49808 | 67.74774 | 40826 ft | 485 kts | 141° |
| 2026-05-07 22:02 | 11.44531 | 67.79066 | 40824 ft | 485 kts | 141° |
| 2026-05-07 22:03 | 11.39260 | 67.83351 | 40838 ft | 485 kts | 141° |
| 2026-05-07 22:03 | 11.33983 | 67.87640 | 40825 ft | 485 kts | 141° |
| 2026-05-07 22:04 | 11.28707 | 67.91926 | 40830 ft | 485 kts | 141° |
| 2026-05-07 22:04 | 11.23423 | 67.96215 | 40818 ft | 486 kts | 141° |
| 2026-05-07 22:05 | 11.18139 | 68.00503 | 40842 ft | 485 kts | 141° |
| 2026-05-07 22:05 | 11.12860 | 68.04784 | 40850 ft | 485 kts | 140° |
| 2026-05-07 22:06 | 11.07575 | 68.09069 | 40843 ft | 485 kts | 140° |
| 2026-05-07 22:06 | 11.02293 | 68.13349 | 40846 ft | 485 kts | 140° |
| 2026-05-07 22:07 | 10.97001 | 68.17635 | 40838 ft | 486 kts | 141° |
| 2026-05-07 22:07 | 10.91716 | 68.21913 | 40844 ft | 486 kts | 140° |
| 2026-05-07 22:08 | 10.86423 | 68.26196 | 40838 ft | 486 kts | 140° |
| 2026-05-07 22:08 | 10.81132 | 68.30475 | 40853 ft | 485 kts | 140° |
| 2026-05-07 22:09 | 10.75847 | 68.34748 | 40842 ft | 486 kts | 141° |
| 2026-05-07 22:09 | 10.70557 | 68.39023 | 40843 ft | 485 kts | 141° |
| 2026-05-07 22:10 | 10.66167 | 68.42569 | 40826 ft | 486 kts | 141° |
| 2026-05-07 22:10 | 10.60872 | 68.46843 | 40845 ft | 485 kts | 141° |
| 2026-05-07 22:11 | 10.55582 | 68.51112 | 40836 ft | 485 kts | 140° |
| 2026-05-07 22:11 | 10.50292 | 68.55379 | 40842 ft | 485 kts | 140° |
| 2026-05-07 22:12 | 10.45002 | 68.59645 | 40830 ft | 486 kts | 140° |
| 2026-05-07 22:12 | 10.39710 | 68.63909 | 40837 ft | 485 kts | 140° |
| 2026-05-07 22:13 | 10.34420 | 68.68171 | 40828 ft | 486 kts | 141° |
| 2026-05-07 22:13 | 10.29129 | 68.72430 | 40843 ft | 485 kts | 140° |
| 2026-05-07 22:14 | 10.23833 | 68.76693 | 40841 ft | 485 kts | 140° |
| 2026-05-07 22:14 | 10.18540 | 68.80951 | 40838 ft | 485 kts | 140° |
| 2026-05-07 22:15 | 10.13252 | 68.85204 | 40835 ft | 485 kts | 140° |
| 2026-05-07 22:15 | 10.07963 | 68.89455 | 40832 ft | 485 kts | 140° |
| 2026-05-07 22:16 | 10.02676 | 68.93703 | 40827 ft | 485 kts | 141° |
| 2026-05-07 22:16 | 9.97392 | 68.97945 | 40838 ft | 484 kts | 140° |
| 2026-05-07 22:17 | 9.92102 | 69.02192 | 40829 ft | 484 kts | 140° |
| 2026-05-07 22:17 | 9.86823 | 69.06428 | 40834 ft | 484 kts | 140° |
| 2026-05-07 22:18 | 9.78943 | 69.12748 | 40828 ft | 484 kts | 140° |
| 2026-05-07 22:19 | 9.73665 | 69.16979 | 40823 ft | 484 kts | 140° |
| 2026-05-07 22:19 | 9.68386 | 69.21206 | 40826 ft | 483 kts | 140° |
| 2026-05-07 22:20 | 9.63116 | 69.25422 | 40827 ft | 483 kts | 140° |
| 2026-05-07 22:20 | 9.57834 | 69.29649 | 40827 ft | 483 kts | 140° |
| 2026-05-07 22:21 | 9.52558 | 69.33867 | 40832 ft | 483 kts | 140° |
| 2026-05-07 22:21 | 9.47283 | 69.38084 | 40831 ft | 483 kts | 140° |
| 2026-05-07 22:22 | 9.42005 | 69.42302 | 40830 ft | 483 kts | 140° |
| 2026-05-07 22:22 | 9.36737 | 69.46511 | 40827 ft | 482 kts | 140° |
| 2026-05-07 22:23 | 9.31467 | 69.50718 | 40826 ft | 482 kts | 140° |
| 2026-05-07 22:23 | 9.26198 | 69.54923 | 40827 ft | 482 kts | 140° |
| 2026-05-07 22:24 | 9.20936 | 69.59121 | 40825 ft | 481 kts | 140° |
| 2026-05-07 22:24 | 9.15682 | 69.63311 | 40822 ft | 481 kts | 140° |
| 2026-05-07 22:25 | 9.10425 | 69.67501 | 40820 ft | 481 kts | 140° |
| 2026-05-07 22:25 | 9.05180 | 69.71682 | 40818 ft | 480 kts | 140° |
| 2026-05-07 22:26 | 8.99928 | 69.75865 | 40815 ft | 480 kts | 140° |
| 2026-05-07 22:26 | 8.94715 | 69.80016 | 40815 ft | 480 kts | 140° |
| 2026-05-07 22:27 | 8.89466 | 69.84194 | 40813 ft | 480 kts | 140° |
| 2026-05-07 22:27 | 8.84217 | 69.88371 | 40807 ft | 481 kts | 140° |
| 2026-05-07 22:28 | 8.78964 | 69.92549 | 40810 ft | 481 kts | 140° |
| 2026-05-07 22:28 | 8.73704 | 69.96731 | 40807 ft | 481 kts | 140° |
| 2026-05-07 22:29 | 8.68435 | 70.00918 | 40814 ft | 482 kts | 140° |
| 2026-05-07 22:29 | 8.63161 | 70.05109 | 40819 ft | 482 kts | 140° |
| 2026-05-07 22:30 | 8.57878 | 70.09304 | 40820 ft | 483 kts | 140° |
| 2026-05-07 22:30 | 8.52606 | 70.13489 | 40832 ft | 482 kts | 140° |
| 2026-05-07 22:31 | 8.47333 | 70.17674 | 40837 ft | 482 kts | 140° |
| 2026-05-07 22:31 | 8.42059 | 70.21858 | 40841 ft | 481 kts | 140° |
| 2026-05-07 22:32 | 8.36801 | 70.26028 | 40835 ft | 480 kts | 140° |
| 2026-05-07 22:32 | 8.31549 | 70.30192 | 40829 ft | 479 kts | 140° |
| 2026-05-07 22:33 | 8.26309 | 70.34345 | 40818 ft | 478 kts | 140° |
| 2026-05-07 22:33 | 8.21079 | 70.38488 | 40815 ft | 478 kts | 140° |
| 2026-05-07 22:34 | 8.15864 | 70.42618 | 40811 ft | 477 kts | 140° |
| 2026-05-07 22:34 | 8.10645 | 70.46750 | 40805 ft | 476 kts | 140° |
| 2026-05-07 22:35 | 8.05432 | 70.50876 | 40799 ft | 476 kts | 140° |
| 2026-05-07 22:35 | 8.00229 | 70.54992 | 40800 ft | 476 kts | 140° |
| 2026-05-07 22:36 | 7.95019 | 70.59112 | 40801 ft | 476 kts | 140° |
| 2026-05-07 22:36 | 7.89836 | 70.63210 | 40793 ft | 476 kts | 140° |
| 2026-05-07 22:37 | 7.84586 | 70.67359 | 40818 ft | 477 kts | 139° |
| 2026-05-07 22:37 | 7.79365 | 70.71484 | 40821 ft | 477 kts | 139° |
| 2026-05-07 22:38 | 7.74176 | 70.75583 | 40822 ft | 477 kts | 139° |
| 2026-05-07 22:38 | 7.68959 | 70.79702 | 40821 ft | 477 kts | 139° |
| 2026-05-07 22:39 | 7.63742 | 70.83820 | 40816 ft | 476 kts | 139° |
| 2026-05-07 22:39 | 7.58520 | 70.87941 | 40815 ft | 476 kts | 139° |
| 2026-05-07 22:40 | 7.53303 | 70.92057 | 40803 ft | 476 kts | 139° |
| 2026-05-07 22:40 | 7.48075 | 70.96152 | 40805 ft | 476 kts | 141° |
| 2026-05-07 22:41 | 7.42693 | 71.00058 | 40805 ft | 477 kts | 142° |
| 2026-05-07 22:41 | 7.37308 | 71.03951 | 40799 ft | 477 kts | 141° |
| 2026-05-07 22:42 | 7.31933 | 71.07874 | 40800 ft | 477 kts | 141° |
| 2026-05-07 22:42 | 7.26568 | 71.11797 | 40807 ft | 477 kts | 141° |
| 2026-05-07 22:43 | 7.21205 | 71.15718 | 40806 ft | 477 kts | 141° |
| 2026-05-07 22:43 | 7.15834 | 71.19644 | 40814 ft | 477 kts | 141° |
| 2026-05-07 22:44 | 7.10468 | 71.23564 | 40816 ft | 476 kts | 141° |
| 2026-05-07 22:44 | 7.05106 | 71.27480 | 40812 ft | 476 kts | 141° |
| 2026-05-07 22:45 | 6.99746 | 71.31394 | 40808 ft | 476 kts | 141° |
| 2026-05-07 22:45 | 6.94393 | 71.35301 | 40806 ft | 475 kts | 141° |
| 2026-05-07 22:46 | 6.89051 | 71.39199 | 40802 ft | 474 kts | 141° |
| 2026-05-07 22:46 | 6.83705 | 71.43098 | 40805 ft | 474 kts | 141° |
| 2026-05-07 22:47 | 6.78365 | 71.46992 | 40797 ft | 474 kts | 141° |
| 2026-05-07 22:47 | 6.73026 | 71.50885 | 40795 ft | 474 kts | 141° |
| 2026-05-07 22:48 | 6.67688 | 71.54775 | 40789 ft | 474 kts | 141° |
| 2026-05-07 22:48 | 6.62350 | 71.58664 | 40801 ft | 474 kts | 141° |
| 2026-05-07 22:49 | 6.57007 | 71.62556 | 40809 ft | 474 kts | 141° |
| 2026-05-07 22:49 | 6.51669 | 71.66444 | 40804 ft | 474 kts | 141° |
| 2026-05-07 22:50 | 6.46336 | 71.70326 | 40799 ft | 474 kts | 141° |
| 2026-05-07 22:50 | 6.40990 | 71.74217 | 40796 ft | 474 kts | 141° |
| 2026-05-07 22:51 | 6.35646 | 71.78105 | 40797 ft | 474 kts | 141° |
| 2026-05-07 22:51 | 6.30300 | 71.81994 | 40804 ft | 475 kts | 141° |
| 2026-05-07 22:52 | 6.24944 | 71.85889 | 40802 ft | 475 kts | 141° |
| 2026-05-07 22:52 | 6.19593 | 71.89779 | 40802 ft | 475 kts | 141° |
| 2026-05-07 22:53 | 6.14235 | 71.93674 | 40802 ft | 475 kts | 141° |
| 2026-05-07 22:53 | 6.08882 | 71.97563 | 40800 ft | 475 kts | 141° |
| 2026-05-07 22:54 | 6.03524 | 72.01457 | 40803 ft | 475 kts | 141° |
| 2026-05-07 22:54 | 5.98165 | 72.05349 | 40801 ft | 475 kts | 141° |
| 2026-05-07 22:55 | 5.92811 | 72.09237 | 40799 ft | 475 kts | 141° |
| 2026-05-07 22:55 | 5.87458 | 72.13123 | 40794 ft | 475 kts | 141° |
| 2026-05-07 22:56 | 5.83012 | 72.16350 | 40797 ft | 474 kts | 141° |
| 2026-05-07 22:56 | 5.77665 | 72.20230 | 40793 ft | 475 kts | 141° |
| 2026-05-07 22:57 | 5.72312 | 72.24113 | 40783 ft | 475 kts | 141° |
| 2026-05-07 22:57 | 5.66956 | 72.27998 | 40791 ft | 475 kts | 141° |
| 2026-05-07 22:58 | 5.61604 | 72.31878 | 40794 ft | 475 kts | 141° |
| 2026-05-07 22:58 | 5.56250 | 72.35760 | 40794 ft | 475 kts | 141° |
| 2026-05-07 22:59 | 5.50896 | 72.39640 | 40799 ft | 475 kts | 141° |
| 2026-05-07 22:59 | 5.45546 | 72.43517 | 40809 ft | 475 kts | 141° |
| 2026-05-07 23:00 | 5.40191 | 72.47397 | 40807 ft | 475 kts | 141° |
| 2026-05-07 23:00 | 5.34832 | 72.51278 | 40806 ft | 475 kts | 141° |
| 2026-05-07 23:01 | 5.29477 | 72.55156 | 40805 ft | 475 kts | 141° |
| 2026-05-07 23:01 | 5.24125 | 72.59031 | 40804 ft | 475 kts | 141° |
| 2026-05-07 23:02 | 5.18770 | 72.62907 | 40807 ft | 474 kts | 141° |
| 2026-05-07 23:02 | 5.13420 | 72.66779 | 40802 ft | 474 kts | 141° |
| 2026-05-07 23:03 | 5.08107 | 72.70624 | 40807 ft | 474 kts | 141° |
| 2026-05-07 23:03 | 5.02764 | 72.74489 | 40806 ft | 473 kts | 141° |
| 2026-05-07 23:04 | 4.97422 | 72.78352 | 40808 ft | 473 kts | 141° |
| 2026-05-07 23:04 | 4.92088 | 72.82208 | 40805 ft | 472 kts | 141° |
| 2026-05-07 23:05 | 4.86765 | 72.86057 | 40798 ft | 472 kts | 141° |
| 2026-05-07 23:05 | 4.81441 | 72.89905 | 40796 ft | 471 kts | 141° |
| 2026-05-07 23:06 | 4.76119 | 72.93751 | 40787 ft | 471 kts | 141° |
| 2026-05-07 23:06 | 4.70807 | 72.97587 | 40804 ft | 471 kts | 141° |
| 2026-05-07 23:07 | 4.65493 | 73.01426 | 40803 ft | 470 kts | 141° |
| 2026-05-07 23:07 | 4.60180 | 73.05264 | 40776 ft | 471 kts | 141° |
| 2026-05-07 23:08 | 4.54871 | 73.09098 | 40787 ft | 471 kts | 141° |
| 2026-05-07 23:08 | 4.49559 | 73.12933 | 40810 ft | 471 kts | 141° |
| 2026-05-07 23:09 | 4.44244 | 73.16770 | 40810 ft | 471 kts | 141° |
| 2026-05-07 23:09 | 4.38930 | 73.20604 | 40806 ft | 471 kts | 141° |
| 2026-05-07 23:10 | 4.33608 | 73.24445 | 40806 ft | 471 kts | 141° |
| 2026-05-07 23:10 | 4.28286 | 73.28284 | 40812 ft | 471 kts | 141° |
| 2026-05-07 23:11 | 4.23000 | 73.32097 | 40806 ft | 471 kts | 141° |
| 2026-05-07 23:11 | 4.17646 | 73.35958 | 40813 ft | 471 kts | 141° |
| 2026-05-07 23:12 | 4.12321 | 73.39798 | 40814 ft | 471 kts | 141° |
| 2026-05-07 23:12 | 4.06997 | 73.43636 | 40810 ft | 471 kts | 141° |
| 2026-05-07 23:13 | 4.01673 | 73.47474 | 40802 ft | 471 kts | 141° |
| 2026-05-07 23:13 | 3.96353 | 73.51308 | 40809 ft | 471 kts | 141° |
| 2026-05-07 23:14 | 3.91064 | 73.55119 | 40814 ft | 471 kts | 141° |
| 2026-05-07 23:14 | 3.85744 | 73.58952 | 40810 ft | 471 kts | 141° |
| 2026-05-07 23:15 | 3.80388 | 73.62811 | 40805 ft | 471 kts | 141° |
| 2026-05-07 23:15 | 3.75110 | 73.66612 | 40782 ft | 471 kts | 141° |
| 2026-05-07 23:16 | 3.69781 | 73.70450 | 40811 ft | 472 kts | 141° |
| 2026-05-07 23:16 | 3.64456 | 73.74284 | 40818 ft | 472 kts | 141° |
| 2026-05-07 23:17 | 3.59123 | 73.78123 | 40798 ft | 472 kts | 141° |
| 2026-05-07 23:17 | 3.53784 | 73.81966 | 40794 ft | 473 kts | 141° |
| 2026-05-07 23:18 | 3.48438 | 73.85814 | 40796 ft | 473 kts | 141° |
| 2026-05-07 23:18 | 3.43091 | 73.89661 | 40807 ft | 473 kts | 141° |
| 2026-05-07 23:19 | 3.37745 | 73.93508 | 40801 ft | 473 kts | 141° |
| 2026-05-07 23:19 | 3.32400 | 73.97353 | 40795 ft | 473 kts | 141° |
| 2026-05-07 23:20 | 3.27054 | 74.01199 | 40787 ft | 473 kts | 141° |
| 2026-05-07 23:20 | 3.21703 | 74.05047 | 40778 ft | 473 kts | 141° |
| 2026-05-07 23:21 | 3.16356 | 74.08892 | 40779 ft | 474 kts | 141° |
| 2026-05-07 23:21 | 3.11002 | 74.12742 | 40800 ft | 474 kts | 141° |
| 2026-05-07 23:22 | 3.05643 | 74.16595 | 40802 ft | 475 kts | 141° |
| 2026-05-07 23:22 | 3.00274 | 74.20454 | 40777 ft | 476 kts | 141° |
| 2026-05-07 23:23 | 2.94899 | 74.24317 | 40780 ft | 476 kts | 141° |
| 2026-05-07 23:23 | 2.89515 | 74.28186 | 40804 ft | 476 kts | 141° |
| 2026-05-07 23:24 | 2.84137 | 74.32051 | 40791 ft | 476 kts | 141° |
| 2026-05-07 23:24 | 2.78768 | 74.35908 | 40796 ft | 476 kts | 141° |
| 2026-05-07 23:25 | 2.73392 | 74.39771 | 40769 ft | 476 kts | 141° |
| 2026-05-07 23:25 | 2.68022 | 74.43629 | 40779 ft | 475 kts | 141° |
| 2026-05-07 23:26 | 2.62646 | 74.47490 | 40775 ft | 475 kts | 141° |
| 2026-05-07 23:26 | 2.57314 | 74.51319 | 40803 ft | 475 kts | 141° |
| 2026-05-07 23:27 | 2.49263 | 74.57101 | 40800 ft | 475 kts | 141° |
| 2026-05-07 23:27 | 2.43891 | 74.60958 | 40801 ft | 475 kts | 141° |